METAR Data
IDs: Format: Raw Decoded Include TAF

Data at: 0259 UTC 18 Jun 2019

PAQT 180253Z AUTO 03011KT 10SM SCT010 OVC017 04/01 A3010 RMK AO2 SLP194 T00390011 56001 TSNO
PAQT 180153Z AUTO 06010KT 10SM BKN018 06/02 A3010 RMK AO2 SLP195 T00560017 TSNO
PAQT 180148Z AUTO 04007KT 10SM BKN018 06/01 A3010 RMK AO2 TSNO
PAQT 180131Z AUTO 08008KT 10SM SCT016 06/01 A3010 RMK AO2 T00610011 TSNO
PAQT 180053Z AUTO 05008KT 10SM BKN015 06/01 A3011 RMK AO2 SLP196 T00560011 TSNO
PAQT 180042Z AUTO 04009KT 10SM BKN015 05/01 A3011 RMK AO2 T00500011 TSNO
PAQT 172353Z AUTO 05008KT 10SM OVC014 04/01 A3011 RMK AO2 SLP197 T00440011 10050 20000 50001 TSNO
PAQT 172253Z AUTO 05008KT 10SM OVC011 03/01 A3012 RMK AO2 SLP199 T00330006 TSNO
PAQT 172228Z AUTO 07008G16KT 10SM OVC010 03/01 A3011 RMK AO2 T00330011 TSNO
PAQT 172153Z AUTO 06009KT 10SM OVC008 03/01 A3011 RMK AO2 SLP197 T00280006 TSNO
PAQT 172053Z AUTO 05009KT 10SM OVC008 02/00 A3011 RMK AO2 SLP197 T00220000 50001 TSNO
PAQT 171953Z AUTO 04011KT 10SM OVC007 02/00 A3011 RMK AO2 SLP198 T00170000 TSNO
PAQT 171924Z AUTO 04010KT 10SM OVC006 01/00 A3011 RMK AO2 CIG 003V008 T00110000 TSNO
PAQT 171917Z AUTO 07012KT 10SM BKN004 OVC008 01/00 A3011 RMK AO2 CIG 003V007 T00110000 TSNO
PAQT 171853Z AUTO 05009KT 10SM OVC005 01/00 A3011 RMK AO2 SLP196 T00060000 TSNO
PAQT 171851Z AUTO 06010KT 10SM OVC005 01/00 A3011 RMK AO2 TSNO
PAQT 171801Z AUTO 07011KT 7SM OVC004 01/00 A3010 RMK AO2 T00060000 TSNO
PAQT 171753Z AUTO 07011KT 9SM OVC005 01/M01 A3010 RMK AO2 SLP193 T00061006 10006 21006 51013 TSNO
PAQT 171728Z AUTO 05011KT 9SM OVC005 01/00 A3010 RMK AO2 T00060000 TSNO
PAQT 171705Z AUTO 07012KT 8SM OVC004 00/M01 A3009 RMK AO2 T00001006 TSNO
PAQT 171653Z AUTO 05010KT 9SM OVC005 00/M01 A3009 RMK AO2 SLP190 T00001006 TSNO
PAQT 171644Z AUTO 06010KT 9SM OVC005 00/M01 A3009 RMK AO2 CIG 003V008 T00001006 TSNO
PAQT 171553Z AUTO 04013KT 6SM BR OVC004 00/M01 A3007 RMK AO2 SLP184 T00001006 TSNO
PAQT 171504Z AUTO 06012KT 9SM OVC003 00/M01 A3007 RMK AO2 T00001006 TSNO
PAQT 171453Z AUTO 05011KT 2SM BR OVC003 00/M01 A3006 RMK AO2 SLP180 T00001006 51012 TSNO
PAQT 171446Z AUTO 06010KT 4SM BR OVC003 00/M01 A3006 RMK AO2 T00001006 TSNO
PAQT 171438Z AUTO 05012KT 6SM BR OVC002 M01/M01 A3006 RMK AO2 T10061006 TSNO
PAQT 171426Z AUTO 04012KT 2SM BR OVC002 00/M01 A3006 RMK AO2 T00001006 TSNO
PAQT 171420Z AUTO 06012KT 1 3/4SM BR OVC003 00/M01 A3006 RMK AO2 T00001006 TSNO
PAQT 171404Z AUTO 06012KT 3SM BR OVC003 M01/M01 A3005 RMK AO2 T10061006 TSNO
PAQT 171353Z AUTO 05014KT 1 1/2SM BR OVC003 00/M01 A3005 RMK AO2 SLP177 T00001006 TSNO
PAQT 171351Z AUTO 05013KT 1 3/4SM BR OVC003 00/M01 A3005 RMK AO2 TSNO
PAQT 171335Z AUTO 04014KT 6SM BR OVC003 00/M01 A3005 RMK AO2 T00001006 TSNO
PAQT 171325Z AUTO 04013KT 10SM OVC002 00/M01 A3004 RMK AO2 T00001006 TSNO
PAQT 171317Z AUTO 05012KT 2SM BR OVC002 00/M01 A3004 RMK AO2 T00001006 TSNO
PAQT 171300Z AUTO 05013KT 1/2SM FG OVC002 00/M01 A3004 RMK AO2 T00001006 TSNO
PAQT 171253Z AUTO 05014KT 3/4SM BR OVC003 00/M01 A3004 RMK AO2 SLP173 T00001006 TSNO
PAQT 171245Z AUTO 05011KT 1 1/4SM BR OVC003 00/M01 A3004 RMK AO2 T00001006 TSNO
PAQT 171235Z AUTO 05014KT 1/2SM FG OVC003 00/M01 A3004 RMK AO2 T00001006 TSNO
PAQT 171226Z AUTO 05013KT 1 1/2SM BR OVC003 00/M01 A3003 RMK AO2 CIG 002V007 T00001006 TSNO
PAQT 171153Z AUTO 05013KT 3SM BR OVC003 00/M01 A3003 RMK AO2 SLP168 60000 70003 T00001006 10028 20000 51013 TSNO
PAQT 171145Z AUTO 04015KT 2 1/2SM BR OVC003 00/M01 A3002 RMK AO2 T00001006 TSNO
PAQT 171113Z AUTO 04012KT 3SM BR OVC003 01/00 A3002 RMK AO2 T00060000 TSNO
PAQT 171102Z AUTO 04014KT 2 1/2SM BR OVC004 01/00 A3002 RMK AO2 T00060000 TSNO
PAQT 171053Z AUTO 04015KT 3SM BR OVC004 01/00 A3002 RMK AO2 SLP165 T00060000 TSNO
PAQT 171005Z AUTO 05017KT 4SM BR OVC004 01/00 A3000 RMK AO2 T00060000 TSNO
PAQT 170953Z AUTO 05018KT 5SM BR OVC005 01/00 A3000 RMK AO2 SLP160 T00060000 TSNO
PAQT 170853Z AUTO 05014KT 10SM BKN006 OVC016 02/01 A2999 RMK AO2 SLP156 60000 T00170006 401500011 53017 TSNO
PAQT 170820Z AUTO 05015G21KT 10SM BKN006 OVC018 02/01 A2998 RMK AO2 T00170006 TSNO
PAQT 170753Z AUTO 04015KT 10SM OVC004 02/01 A2997 RMK AO2 CIG 003V007 SLP149 T00170011 TSNO
PAQT 170733Z AUTO 04018KT 10SM OVC004 02/01 A2996 RMK AO2 T00220011 TSNO
PAQT 170653Z AUTO 04012KT 10SM OVC005 02/02 A2995 RMK AO2 RAE0558 SLP144 P0000 T00220017 TSNO
PAQT 170635Z AUTO 03011KT 10SM OVC005 03/02 A2995 RMK AO2 RAE0558 P0000 T00280017 TSNO
PAQT 170620Z AUTO 05013KT 10SM OVC004 03/02 A2994 RMK AO2 RAE0558 P0000 T00280017 TSNO
PAQT 170601Z AUTO 04010KT 10SM BKN005 BKN016 OVC060 03/02 A2994 RMK AO2 RAE0558 P0000 T00280022 TSNO
PAQT 170553Z AUTO 04009KT 8SM -RA SCT005 BKN016 OVC060 03/02 A2994 RMK AO2 SLP139 P0002 60003 T00280022 10144 20028 53008 TSNO
PAQT 170507Z AUTO 04008KT 7SM -RA FEW008 OVC065 04/03 A2993 RMK AO2 P0000 T00440033 TSNO
PAQT 170453Z AUTO 04008KT 9SM -RA OVC070 05/03 A2992 RMK AO2 SLP133 P0001 T00500033 TSNO
PAQT 170353Z AUTO 03006KT 10SM -RA OVC085 06/03 A2992 RMK AO2 RAB52 SLP132 P0000 T00610028 TSNO
PAQT 170253Z AUTO 03009KT 10SM FEW075 BKN090 09/03 A2992 RMK AO2 SLP131 T00890033 55005 TSNO
PAQT 170153Z AUTO 01010KT 10SM OVC041 12/04 A2992 RMK AO2 SLP131 T01170039 TSNO
PAQT 170053Z AUTO 36009KT 10SM CLR 13/04 A2993 RMK AO2 SLP135 T01330039 TSNO
PAQT 162353Z AUTO 31005KT 9SM BKN043 14/01 A2993 RMK AO2 SLP136 T01440011 10150 20100 58013 TSNO
PAQT 162253Z AUTO 32006KT 10SM OVC043 13/01 A2995 RMK AO2 SLP141 T01330011 TSNO
PAQT 162153Z AUTO 33005KT 10SM OVC043 13/01 A2996 RMK AO2 SLP147 T01280006 TSNO
PAQT 162053Z AUTO 26004KT 10SM OVC042 13/01 A2997 RMK AO2 SLP149 T01280006 58007 TSNO
PAQT 161953Z AUTO 31005KT 10SM OVC041 12/01 A2998 RMK AO2 SLP152 T01220006 TSNO
PAQT 161853Z AUTO 24007KT 10SM OVC042 11/01 A2999 RMK AO2 SLP155 T01110011 TSNO
PAQT 161753Z AUTO 23007KT 10SM OVC040 10/03 A2999 RMK AO2 SLP157 T01000028 10100 20039 56007 TSNO
PAQT 161653Z AUTO 23007KT 10SM BKN043 09/02 A3000 RMK AO2 SLP159 T00940022 TSNO
PAQT 161553Z AUTO 23006KT 8SM OVC120 08/03 A3001 RMK AO2 SLP161 T00830028 TSNO